NOAA Weather Radio

Lightning Safety

Turn Around Don't Drown
Storm Ready
SkyWarn
WACO REGIONAL AIRPORT, TX, United States (KACT) 31-36N 97-13W 151M
Nov 23, 2014 - 09:51 AM EST / 2014.11.23 1451 UTC
Wind: from the S (190 degrees) at 13 MPH (11 KT):0
Visibility: 10 mile(s):0
Sky conditions: clear
Temperature: 57.9 F (14.4 C)
Dew Point: 55.9 F (13.3 C)
Relative Humidity: 93%
Pressure (altimeter): 29.62 in. Hg (1003 hPa)
Pressure tendency: 0.00 inches (0.1 hPa) lower than three hours ago
ob: KACT 231451Z 19011KT 10SM CLR 14/13 A2962 RMK AO2 SLP024 T01440133 58001
cycle: 15